Time;durP1;ratioP1;P1;durP2;ratioP2;P2;SDS_P1;SDS_P2;PMS_P1;PMS_P2;Temp;Humidity;BMP_temperature;BMP_pressure;BME280_temperature;BME280_humidity;BME280_pressure;Samples;Min_cycle;Max_cycle;Signal;HPM_P1;HPM_P2
2023/04/06 00:00:04;;;;;;;8.18;4.47;;;;;;;5.71;69.87;99928.88;7346271;19;20041;-70
2023/04/06 00:02:34;;;;;;;6.50;4.95;;;;;;;5.65;69.89;99934.44;7346293;19;20089;-67
2023/04/06 00:04:59;;;;;;;11.32;5.30;;;;;;;5.65;69.83;99923.84;7343455;19;20346;-66
2023/04/06 00:07:24;;;;;;;6.53;4.55;;;;;;;5.62;69.96;99927.53;7342238;19;20414;-66
2023/04/06 00:09:48;;;;;;;9.98;4.97;;;;;;;5.61;69.99;99924.94;7343814;19;20045;-65
2023/04/06 00:12:13;;;;;;;6.05;4.50;;;;;;;5.59;70.07;99921.50;7348601;19;20022;-69
2023/04/06 00:14:37;;;;;;;6.50;4.53;;;;;;;5.58;70.01;99912.72;7346955;19;20019;-67
2023/04/06 00:17:02;;;;;;;6.80;5.35;;;;;;;5.59;69.92;99921.50;7345592;19;20022;-69
2023/04/06 00:19:27;;;;;;;7.15;4.88;;;;;;;5.56;70.08;99926.94;7342133;19;20006;-67
2023/04/06 00:21:52;;;;;;;8.38;4.57;;;;;;;5.54;70.08;99921.72;7342538;19;20011;-69
2023/04/06 00:24:16;;;;;;;8.80;4.65;;;;;;;5.53;70.09;99927.09;7341846;19;20018;-68
2023/04/06 00:26:44;;;;;;;13.05;6.30;;;;;;;5.53;70.21;99932.41;7340209;19;20014;-69
2023/04/06 00:29:09;;;;;;;7.60;4.75;;;;;;;5.49;70.29;99936.94;7340236;19;20044;-68
2023/04/06 00:31:33;;;;;;;7.38;5.03;;;;;;;5.47;70.35;99944.09;7340582;19;20155;-68
2023/04/06 00:33:59;;;;;;;11.82;4.85;;;;;;;5.46;70.18;99939.72;7340343;19;20019;-65
2023/04/06 00:36:25;;;;;;;8.18;5.45;;;;;;;5.44;70.50;99929.22;7340670;19;20011;-66
2023/04/06 00:38:51;;;;;;;8.05;5.28;;;;;;;5.40;70.53;99930.31;7340361;19;20018;-65
2023/04/06 00:41:17;;;;;;;6.78;4.97;;;;;;;5.36;70.57;99926.09;7343146;19;20047;-68
2023/04/06 00:43:46;;;;;;;11.38;6.00;;;;;;;5.37;70.55;99925.16;7343418;19;20022;-64
2023/04/06 00:46:10;;;;;;;7.78;5.18;;;;;;;5.34;70.58;99933.22;7343339;19;20056;-65
2023/04/06 00:48:35;;;;;;;7.43;5.18;;;;;;;5.33;70.81;99931.50;7345796;19;20010;-64
2023/04/06 00:53:32;;;;;;;11.23;5.68;;;;;;;5.30;70.79;99929.00;7339462;19;20007;-71
2023/04/06 00:55:58;;;;;;;9.90;5.90;;;;;;;5.29;70.80;99931.72;7340375;19;20018;-64
2023/04/06 00:58:25;;;;;;;9.23;5.53;;;;;;;5.26;71.01;99926.56;7341597;19;20026;-66
2023/04/06 01:00:56;;;;;;;8.90;5.18;;;;;;;5.22;71.10;99928.47;7340759;19;20038;-66
2023/04/06 01:03:22;;;;;;;10.32;5.13;;;;;;;5.19;71.18;99930.44;7339174;19;20029;-65
2023/04/06 01:05:46;;;;;;;8.75;5.03;;;;;;;5.16;71.32;99922.63;7341754;19;20033;-70
2023/04/06 01:08:19;;;;;;;7.05;5.18;;;;;;;5.15;71.28;99928.84;7340605;19;20099;-71
2023/04/06 01:10:44;;;;;;;8.32;5.68;;;;;;;5.15;71.28;99919.13;7340362;19;20020;-66
2023/04/06 01:13:15;;;;;;;8.75;5.50;;;;;;;5.07;71.45;99927.41;7345807;19;20066;-70
2023/04/06 01:15:50;;;;;;;7.90;5.20;;;;;;;5.11;71.34;99920.19;7341313;19;20022;-70
2023/04/06 01:18:28;;;;;;;9.20;5.55;;;;;;;5.07;71.37;99913.34;7339062;19;20018;-68
2023/04/06 01:21:08;;;;;;;9.27;6.40;;;;;;;5.02;71.36;99916.16;7339668;19;20018;-68
2023/04/06 01:23:35;;;;;;;14.60;5.85;;;;;;;5.04;71.42;99909.03;7343149;19;20327;-74
2023/04/06 01:26:01;;;;;;;9.10;5.30;;;;;;;5.00;71.54;99922.44;7344281;19;20007;-70
2023/04/06 01:28:29;;;;;;;9.23;5.32;;;;;;;4.96;71.58;99927.03;7339794;19;20049;-72
2023/04/06 01:31:11;;;;;;;8.40;5.22;;;;;;;4.92;71.68;99924.56;7340016;19;20442;-72
2023/04/06 01:33:54;;;;;;;8.10;5.13;;;;;;;4.93;71.48;99923.66;7341576;19;20048;-78
2023/04/06 01:36:23;;;;;;;9.85;5.10;;;;;;;4.90;71.72;99913.22;7339339;19;20311;-72
2023/04/06 01:38:55;;;;;;;12.10;5.80;;;;;;;4.88;71.65;99918.56;7342098;19;20030;-78
2023/04/06 01:41:29;;;;;;;7.75;5.57;;;;;;;4.80;71.75;99919.81;7338184;19;20015;-73
2023/04/06 01:43:54;;;;;;;8.57;5.28;;;;;;;4.81;71.96;99913.63;7337210;19;20021;-70
2023/04/06 01:46:22;;;;;;;7.72;5.22;;;;;;;4.72;72.30;99918.38;7339261;19;20015;-72
2023/04/06 01:48:47;;;;;;;10.48;6.47;;;;;;;4.75;72.13;99918.22;7338970;19;20013;-71
2023/04/06 01:51:20;;;;;;;13.10;6.32;;;;;;;4.70;72.30;99917.59;7341028;19;20018;-71
2023/04/06 01:53:57;;;;;;;7.30;4.70;;;;;;;4.70;72.26;99920.22;7343548;19;20086;-72
2023/04/06 01:56:31;;;;;;;7.10;5.28;;;;;;;4.69;72.33;99918.50;7340318;19;20089;-71
2023/04/06 01:59:03;;;;;;;7.63;5.28;;;;;;;4.68;72.46;99921.22;7339172;19;20010;-71
2023/04/06 02:01:34;;;;;;;13.57;6.88;;;;;;;4.61;72.37;99915.34;7337343;19;20019;-71
2023/04/06 02:03:59;;;;;;;11.27;5.80;;;;;;;4.63;72.54;99924.03;7337991;19;20046;-72
2023/04/06 02:06:24;;;;;;;7.40;5.55;;;;;;;4.63;72.74;99923.19;7336958;19;20010;-71
2023/04/06 02:08:49;;;;;;;7.82;5.00;;;;;;;4.61;72.53;99927.69;7340692;19;20014;-73
2023/04/06 02:11:14;;;;;;;8.77;5.93;;;;;;;4.59;72.76;99925.09;7343982;19;20023;-69
2023/04/06 02:13:44;;;;;;;8.43;5.90;;;;;;;4.52;73.03;99934.19;7350674;19;20012;-73
2023/04/06 02:16:09;;;;;;;9.00;6.05;;;;;;;4.54;73.00;99936.78;7361076;19;20216;-72
2023/04/06 02:18:34;;;;;;;8.02;5.43;;;;;;;4.51;73.04;99939.56;7357824;19;20053;-70
2023/04/06 02:20:59;;;;;;;10.40;6.05;;;;;;;4.50;73.06;99943.97;7359819;19;20019;-77
2023/04/06 02:23:24;;;;;;;9.65;5.07;;;;;;;4.50;73.06;99933.44;7347856;19;20073;-73
2023/04/06 02:25:48;;;;;;;14.13;6.63;;;;;;;4.48;73.13;99935.25;7345066;19;20022;-73
2023/04/06 02:28:15;;;;;;;9.38;5.13;;;;;;;4.46;73.54;99938.88;7346497;19;20022;-73
2023/04/06 02:30:40;;;;;;;8.80;5.60;;;;;;;4.42;73.45;99935.50;7345054;19;20651;-73
2023/04/06 02:33:04;;;;;;;11.23;6.40;;;;;;;4.44;73.34;99938.94;7344930;19;20372;-72
2023/04/06 02:35:37;;;;;;;8.40;5.57;;;;;;;4.43;73.36;99942.50;7344768;19;20006;-69
2023/04/06 02:38:02;;;;;;;8.88;5.97;;;;;;;4.42;73.49;99945.19;7348354;19;20018;-70
2023/04/06 02:40:30;;;;;;;9.00;4.78;;;;;;;4.42;73.39;99942.56;7347832;19;20014;-72
2023/04/06 02:42:56;;;;;;;9.45;5.68;;;;;;;4.41;73.39;99941.69;7348221;19;20018;-71
2023/04/06 02:45:27;;;;;;;8.90;6.15;;;;;;;4.43;73.39;99966.25;7345406;19;20022;-68
2023/04/06 02:47:53;;;;;;;12.95;6.25;;;;;;;4.43;73.34;99960.13;7346490;19;20081;-67
2023/04/06 02:50:18;;;;;;;9.90;6.38;;;;;;;4.42;73.45;99961.03;7348606;19;20023;-68
2023/04/06 02:52:52;;;;;;;6.97;4.78;;;;;;;4.40;73.58;99973.47;7350803;19;20014;-67
2023/04/06 02:55:17;;;;;;;9.82;6.20;;;;;;;4.40;73.55;99960.28;7350398;19;20010;-77
2023/04/06 02:57:42;;;;;;;12.95;5.78;;;;;;;4.39;73.47;99962.06;7352762;19;20022;-70
2023/04/06 03:00:07;;;;;;;8.43;5.63;;;;;;;4.41;73.54;99967.25;7350098;19;20017;-68
2023/04/06 03:02:37;;;;;;;10.63;6.07;;;;;;;4.40;73.65;99969.06;7348367;19;20011;-67
2023/04/06 03:05:07;;;;;;;11.10;6.05;;;;;;;4.41;73.58;99978.66;7348877;19;20044;-70
2023/04/06 03:07:36;;;;;;;9.13;6.13;;;;;;;4.42;73.49;99972.47;7368818;19;20143;-71
2023/04/06 03:10:01;;;;;;;9.05;6.30;;;;;;;4.43;73.55;99976.81;7372472;19;20031;-72
2023/04/06 03:12:28;;;;;;;10.35;5.47;;;;;;;4.40;73.62;99979.59;7368404;19;20018;-72
2023/04/06 03:15:16;;;;;;;10.10;5.72;;;;;;;4.46;73.45;99979.34;7343889;19;20014;-73
2023/04/06 03:17:46;;;;;;;10.77;6.05;;;;;;;4.48;73.37;99980.16;7342901;19;20550;-71
2023/04/06 03:23:03;;;;;;;10.23;5.57;;;;;;;4.59;73.10;99969.13;7343437;19;20537;-75
2023/04/06 03:25:36;;;;;;;10.35;6.25;;;;;;;4.68;73.13;99969.59;7343161;19;20150;-75
2023/04/06 03:28:08;;;;;;;8.25;5.95;;;;;;;4.78;72.95;99985.06;7347659;19;20715;-69
2023/04/06 03:30:38;;;;;;;9.75;5.90;;;;;;;4.83;72.71;99983.94;7348558;19;20011;-81
2023/04/06 03:33:05;;;;;;;7.85;5.25;;;;;;;4.95;72.46;99977.28;7357207;19;20027;-80
2023/04/06 03:35:36;;;;;;;11.07;5.88;;;;;;;5.05;72.30;99983.88;7346773;19;20432;-77
2023/04/06 03:38:05;;;;;;;9.75;5.72;;;;;;;5.13;71.99;99992.31;7346429;19;20051;-78
2023/04/06 03:40:31;;;;;;;7.55;5.70;;;;;;;5.22;71.84;99983.13;7347173;19;20025;-79
2023/04/06 03:42:55;;;;;;;8.48;5.70;;;;;;;5.32;71.48;99993.22;7348266;19;20015;-81
2023/04/06 03:45:20;;;;;;;7.78;5.00;;;;;;;5.41;71.24;99992.84;7345448;19;20023;-79
2023/04/06 03:47:48;;;;;;;9.00;5.45;;;;;;;5.51;70.93;99997.72;7346080;19;20022;-80
2023/04/06 03:50:13;;;;;;;6.95;5.05;;;;;;;5.59;70.68;99998.22;7347787;19;20021;-78
2023/04/06 03:52:37;;;;;;;9.43;4.72;;;;;;;5.70;70.61;99995.94;7346909;19;20019;-73
2023/04/06 03:55:02;;;;;;;8.95;4.88;;;;;;;5.81;70.25;100001.59;7347333;19;20029;-79
2023/04/06 03:57:27;;;;;;;8.20;5.55;;;;;;;5.91;69.67;100002.03;7360618;19;20014;-71
2023/04/06 03:59:52;;;;;;;7.78;5.38;;;;;;;6.02;69.53;100002.41;7354200;19;20448;-77
2023/04/06 04:02:16;;;;;;;8.60;5.80;;;;;;;6.13;69.10;99993.03;7357140;19;20017;-81
2023/04/06 04:04:41;;;;;;;9.35;4.88;;;;;;;6.31;68.76;100001.88;7370101;19;20007;-78
2023/04/06 04:07:06;;;;;;;9.45;4.63;;;;;;;6.43;68.35;100001.25;7347852;19;20465;-78
2023/04/06 04:09:31;;;;;;;7.72;5.57;;;;;;;6.55;67.80;99994.50;7348659;19;20014;-78
2023/04/06 04:11:59;;;;;;;10.60;5.75;;;;;;;6.78;67.42;100002.16;7347274;19;20015;-79
2023/04/06 04:14:23;;;;;;;7.35;5.45;;;;;;;6.92;66.93;99999.69;7345796;19;20105;-76
2023/04/06 04:16:49;;;;;;;8.15;5.22;;;;;;;7.12;66.44;100008.41;7345287;19;20078;-76
2023/04/06 04:19:14;;;;;;;7.07;4.90;;;;;;;7.23;65.78;100008.72;7345793;19;20028;-79
2023/04/06 04:21:45;;;;;;;7.53;4.72;;;;;;;7.38;65.57;99996.44;7353136;19;20038;-76
2023/04/06 04:24:13;;;;;;;8.02;5.45;;;;;;;7.55;65.13;100002.59;7353399;19;20018;-76
2023/04/06 04:26:44;;;;;;;17.95;6.10;;;;;;;7.75;64.74;100009.47;7354823;19;20031;-76
2023/04/06 04:29:11;;;;;;;8.57;4.90;;;;;;;7.92;64.01;100013.84;7351367;19;20011;-76
2023/04/06 04:31:37;;;;;;;9.20;5.03;;;;;;;8.01;63.47;100008.88;7354054;19;20006;-77
2023/04/06 04:34:06;;;;;;;8.32;5.13;;;;;;;8.08;63.05;100019.19;7349709;19;20018;-75
2023/04/06 04:36:32;;;;;;;8.05;4.93;;;;;;;8.17;63.04;100014.22;7343094;19;20010;-74
2023/04/06 04:39:03;;;;;;;8.35;5.03;;;;;;;8.26;62.70;100012.84;7346071;19;20647;-74
2023/04/06 04:41:33;;;;;;;9.45;5.10;;;;;;;8.37;62.26;100024.63;7343112;19;20042;-74
2023/04/06 04:44:03;;;;;;;6.40;4.80;;;;;;;8.42;61.85;100005.78;7341730;19;20521;-74
2023/04/06 04:46:30;;;;;;;8.15;4.43;;;;;;;8.47;61.78;100021.44;7348484;19;20033;-73
2023/04/06 04:48:55;;;;;;;7.25;4.70;;;;;;;8.43;61.65;100009.28;7355092;19;20066;-77
2023/04/06 04:51:21;;;;;;;8.63;4.78;;;;;;;8.40;61.49;100012.09;7355013;19;20018;-76
2023/04/06 04:54:05;;;;;;;15.95;9.20;;;;;;;8.42;61.32;100002.25;7354895;19;20014;-75
2023/04/06 04:56:30;;;;;;;8.23;6.30;;;;;;;8.48;60.93;100008.06;7353034;19;20014;-72
2023/04/06 04:59:04;;;;;;;7.00;4.50;;;;;;;8.55;60.96;100004.13;7350841;19;20413;-73
2023/04/06 05:01:32;;;;;;;9.88;5.40;;;;;;;8.77;60.47;100008.19;7340920;19;20011;-73
2023/04/06 05:03:59;;;;;;;10.52;4.97;;;;;;;8.90;59.84;100007.41;7340332;19;20058;-73
2023/04/06 05:06:25;;;;;;;9.32;4.88;;;;;;;9.08;59.59;100008.97;7338888;19;20218;-71
2023/04/06 05:08:51;;;;;;;10.32;5.82;;;;;;;9.21;59.12;99998.44;7339899;19;20363;-73
2023/04/06 05:11:15;;;;;;;9.43;4.35;;;;;;;9.43;58.68;100000.66;7339543;19;20482;-73
2023/04/06 05:13:44;;;;;;;7.80;4.60;;;;;;;9.62;58.02;99995.91;7339303;19;20066;-73
2023/04/06 05:16:17;;;;;;;7.40;4.70;;;;;;;9.80;57.38;100007.25;7339607;19;20055;-73
2023/04/06 05:18:43;;;;;;;7.10;4.72;;;;;;;9.93;56.69;100005.50;7339127;19;20440;-72
2023/04/06 05:21:15;;;;;;;6.40;5.10;;;;;;;10.21;56.04;100001.97;7340740;19;20020;-72
2023/04/06 05:23:52;;;;;;;8.07;4.95;;;;;;;10.52;55.49;100012.34;7339216;19;20012;-75
2023/04/06 05:26:18;;;;;;;11.80;5.07;;;;;;;10.79;54.54;100015.03;7338967;19;20021;-72
2023/04/06 05:28:45;;;;;;;8.73;4.63;;;;;;;11.06;53.80;100000.81;7340018;19;20026;-71
2023/04/06 05:31:11;;;;;;;10.75;4.85;;;;;;;11.38;53.07;100001.25;7339018;19;20027;-72
2023/04/06 05:33:47;;;;;;;11.52;5.53;;;;;;;11.70;52.02;100005.22;7339048;19;20014;-70
2023/04/06 05:36:14;;;;;;;15.05;5.55;;;;;;;12.19;51.15;100004.44;7339335;19;20470;-72
2023/04/06 05:38:41;;;;;;;5.35;4.30;;;;;;;12.58;49.74;100006.84;7339189;19;20010;-73
2023/04/06 05:41:26;;;;;;;9.60;5.05;;;;;;;12.90;48.81;99999.09;7341091;19;20028;-75
2023/04/06 05:43:50;;;;;;;7.53;4.85;;;;;;;13.08;48.27;100010.25;7337022;19;20010;-72
2023/04/06 05:46:16;;;;;;;10.15;4.97;;;;;;;13.09;47.72;100011.94;7339558;19;20017;-74
2023/04/06 05:48:42;;;;;;;10.77;4.93;;;;;;;13.35;47.09;100005.47;7345036;19;20026;-73
2023/04/06 05:51:09;;;;;;;7.82;5.28;;;;;;;13.72;46.61;99999.94;7342369;19;20039;-75
2023/04/06 05:53:43;;;;;;;8.65;5.45;;;;;;;14.31;45.76;99999.66;7340672;19;20014;-74
2023/04/06 05:56:08;;;;;;;9.00;4.88;;;;;;;15.05;44.41;100003.34;7340370;19;20051;-73
2023/04/06 05:58:36;;;;;;;11.07;5.45;;;;;;;15.54;42.96;100000.03;7339037;19;20019;-75
2023/04/06 06:01:02;;;;;;;7.63;5.32;;;;;;;16.01;42.06;100001.28;7338316;19;20378;-74
2023/04/06 06:03:37;;;;;;;8.73;4.82;;;;;;;16.54;41.17;100001.88;7338769;19;20021;-72
2023/04/06 06:06:06;;;;;;;17.85;4.80;;;;;;;16.87;40.17;100007.88;7337094;19;20023;-72
2023/04/06 06:08:41;;;;;;;13.77;5.22;;;;;;;17.10;39.64;100000.38;7338386;19;20030;-74
2023/04/06 06:11:11;;;;;;;7.40;5.32;;;;;;;17.53;39.40;99997.19;7341531;19;20078;-75
2023/04/06 06:13:36;;;;;;;13.45;4.97;;;;;;;18.00;38.63;99987.28;7339542;19;20100;-77
2023/04/06 06:16:04;;;;;;;11.43;6.43;;;;;;;18.50;37.52;99995.84;7340843;19;20021;-76
2023/04/06 06:18:32;;;;;;;8.77;5.57;;;;;;;19.18;36.62;99988.94;7342979;19;20018;-77
2023/04/06 06:20:57;;;;;;;15.05;6.70;;;;;;;19.76;35.89;99990.22;7340529;19;20039;-76
2023/04/06 06:23:21;;;;;;;13.10;6.32;;;;;;;20.36;35.05;99988.34;7340669;19;20168;-74
2023/04/06 06:25:47;;;;;;;12.38;6.68;;;;;;;20.82;34.23;99994.22;7339123;19;20107;-74
2023/04/06 06:28:12;;;;;;;10.43;5.10;;;;;;;21.25;33.68;99985.81;7339537;19;20116;-72
2023/04/06 06:30:37;;;;;;;11.15;5.20;;;;;;;21.65;32.96;99986.81;7337937;19;20019;-73
2023/04/06 06:33:03;;;;;;;12.23;5.95;;;;;;;22.12;32.33;99983.34;7338030;19;20014;-76
2023/04/06 06:35:29;;;;;;;10.13;5.88;;;;;;;22.55;31.42;99990.09;7340445;19;20074;-75
2023/04/06 06:37:55;;;;;;;10.10;5.00;;;;;;;22.95;30.59;99978.16;7343826;19;20007;-75
2023/04/06 06:40:26;;;;;;;13.25;5.53;;;;;;;23.12;30.22;99985.16;7339708;19;20010;-75
2023/04/06 06:42:52;;;;;;;15.30;6.07;;;;;;;23.41;30.02;99982.53;7339087;19;20011;-76
2023/04/06 06:45:33;;;;;;;13.90;5.47;;;;;;;23.72;29.50;99973.41;7338957;19;20397;-76
2023/04/06 06:47:58;;;;;;;10.15;5.20;;;;;;;23.82;28.98;99973.97;7340580;19;20019;-76
2023/04/06 06:50:25;;;;;;;12.25;5.38;;;;;;;24.04;28.78;99975.75;7341122;19;20014;-76
2023/04/06 06:52:50;;;;;;;8.88;5.15;;;;;;;24.26;28.57;99970.47;7341167;19;20216;-77
2023/04/06 06:55:19;;;;;;;14.90;5.90;;;;;;;24.42;28.28;99975.69;7339620;19;20022;-74
2023/04/06 06:57:48;;;;;;;9.68;5.65;;;;;;;24.73;28.13;99978.97;7346645;19;20014;-74
2023/04/06 07:00:21;;;;;;;15.75;5.35;;;;;;;24.93;27.81;99974.63;7347643;19;20015;-76
2023/04/06 07:02:50;;;;;;;29.63;7.60;;;;;;;25.44;27.64;99982.66;7346597;19;20037;-76
2023/04/06 07:05:15;;;;;;;11.98;5.47;;;;;;;26.16;26.46;99973.31;7346209;19;20014;-77
2023/04/06 07:07:42;;;;;;;14.20;6.32;;;;;;;26.93;25.68;99978.50;7346156;19;20038;-74
2023/04/06 07:10:14;;;;;;;10.60;5.80;;;;;;;27.13;25.07;99973.03;7348475;19;20334;-73
2023/04/06 07:12:39;;;;;;;14.27;6.13;;;;;;;27.55;24.97;99969.94;7354589;19;20042;-74
2023/04/06 07:17:35;;;;;;;16.10;5.60;;;;;;;27.61;24.11;99966.34;7349478;19;20532;-74
2023/04/06 07:20:00;;;;;;;10.63;5.43;;;;;;;27.52;24.14;99966.75;7348001;19;20454;-73
2023/04/06 07:22:25;;;;;;;11.52;6.35;;;;;;;27.40;24.26;99972.03;7346214;19;20037;-74
2023/04/06 07:24:51;;;;;;;14.43;6.60;;;;;;;27.58;24.47;99972.25;7346332;19;20094;-76
2023/04/06 07:27:18;;;;;;;11.18;5.43;;;;;;;27.92;24.01;99968.41;7343783;19;20023;-74
2023/04/06 07:29:49;;;;;;;14.32;7.00;;;;;;;28.32;23.60;99971.09;7348265;19;20805;-77
2023/04/06 07:32:15;;;;;;;13.48;6.80;;;;;;;28.61;22.94;99981.50;7344719;19;20019;-74
2023/04/06 07:34:45;;;;;;;12.25;6.65;;;;;;;28.41;23.11;99967.03;7345724;19;20018;-76
2023/04/06 07:37:12;;;;;;;14.75;6.75;;;;;;;28.21;23.20;99971.75;7345057;19;20017;-77
2023/04/06 07:39:37;;;;;;;15.82;7.18;;;;;;;28.41;23.37;99962.41;7345885;19;20373;-76
2023/04/06 07:42:02;;;;;;;14.57;7.50;;;;;;;28.70;22.91;99976.59;7346446;19;20035;-76
2023/04/06 07:44:28;;;;;;;13.38;6.28;;;;;;;28.76;22.58;99967.50;7348960;19;20014;-76
2023/04/06 07:46:53;;;;;;;14.82;6.50;;;;;;;28.79;22.46;99967.06;7345381;19;20021;-76
2023/04/06 07:49:22;;;;;;;15.23;5.93;;;;;;;28.84;22.25;99978.25;7346194;19;20074;-76
2023/04/06 07:51:49;;;;;;;14.30;6.28;;;;;;;28.56;22.38;99977.75;7342482;19;20010;-78
2023/04/06 07:54:14;;;;;;;14.38;6.43;;;;;;;28.30;22.66;99974.03;7349828;19;20022;-75
2023/04/06 07:56:39;;;;;;;11.18;5.50;;;;;;;28.10;22.73;99971.31;7342421;19;20057;-71
2023/04/06 07:59:03;;;;;;;8.25;4.65;;;;;;;28.09;22.32;99964.16;7344351;19;20031;-73
2023/04/06 08:01:28;;;;;;;13.32;6.25;;;;;;;25.79;24.15;99960.91;7343065;19;20023;-76
2023/04/06 08:03:55;;;;;;;12.05;6.78;;;;;;;25.90;24.61;99974.84;7343030;19;20011;-73
2023/04/06 08:06:20;;;;;;;10.13;5.45;;;;;;;25.48;24.43;99967.59;7340003;19;20014;-75
2023/04/06 08:08:46;;;;;;;14.07;5.25;;;;;;;25.31;24.44;99963.44;7340222;19;20029;-77
2023/04/06 08:11:10;;;;;;;11.10;5.25;;;;;;;25.50;24.50;99964.66;7340969;19;20018;-77
2023/04/06 08:13:38;;;;;;;12.57;6.07;;;;;;;26.30;24.27;99955.94;7351299;19;20018;-74
2023/04/06 08:16:04;;;;;;;9.93;5.00;;;;;;;26.74;23.39;99963.69;7341017;19;20022;-74
2023/04/06 08:18:31;;;;;;;6.40;4.68;;;;;;;26.96;23.42;99964.41;7342733;19;20039;-76
2023/04/06 08:20:56;;;;;;;12.02;4.68;;;;;;;26.95;23.04;99952.63;7341025;19;20015;-74
2023/04/06 08:23:23;;;;;;;8.57;4.72;;;;;;;26.70;23.22;99956.94;7342382;19;20023;-73
2023/04/06 08:25:47;;;;;;;7.40;4.95;;;;;;;26.25;23.36;99964.72;7343421;19;20475;-74
2023/04/06 08:28:18;;;;;;;6.65;4.70;;;;;;;26.06;23.85;99953.72;7342566;19;20125;-74
2023/04/06 08:30:44;;;;;;;12.52;5.43;;;;;;;26.54;23.75;99962.78;7341820;19;20021;-76
2023/04/06 08:33:10;;;;;;;16.33;4.70;;;;;;;26.53;23.10;99961.91;7347829;19;20021;-73
2023/04/06 08:35:37;;;;;;;17.33;5.00;;;;;;;26.34;23.54;99952.59;7343503;19;20032;-72
2023/04/06 08:38:05;;;;;;;10.63;4.75;;;;;;;27.24;23.22;99953.25;7345269;19;20030;-75
2023/04/06 08:40:36;;;;;;;12.38;4.78;;;;;;;28.25;22.77;99962.03;7346391;19;20021;-77
2023/04/06 08:43:09;;;;;;;5.82;4.20;;;;;;;28.78;21.81;99959.94;7344050;19;20534;-76
2023/04/06 08:45:35;;;;;;;8.68;4.50;;;;;;;29.39;21.28;99937.31;7342754;19;20011;-73
2023/04/06 08:48:03;;;;;;;6.57;4.60;;;;;;;30.19;20.69;99949.22;7341728;19;20052;-74
2023/04/06 08:50:30;;;;;;;9.55;5.32;;;;;;;30.74;20.06;99951.94;7340982;19;20022;-75
2023/04/06 08:52:56;;;;;;;8.57;4.68;;;;;;;30.81;19.74;99949.94;7342029;19;20474;-76
2023/04/06 08:55:22;;;;;;;7.78;3.97;;;;;;;30.60;19.93;99948.50;7343823;19;20038;-75
2023/04/06 08:57:48;;;;;;;11.68;5.30;;;;;;;30.49;19.88;99950.09;7341790;19;20018;-76
2023/04/06 09:00:14;;;;;;;6.57;4.30;;;;;;;30.57;19.85;99938.00;7341390;19;20074;-79
2023/04/06 09:02:45;;;;;;;9.13;4.60;;;;;;;30.46;19.48;99947.84;7341268;19;20053;-76
2023/04/06 09:05:13;;;;;;;6.55;4.88;;;;;;;30.16;19.67;99935.94;7341509;19;20070;-75
2023/04/06 09:07:40;;;;;;;13.68;4.65;;;;;;;30.24;19.84;99946.63;7339629;19;20010;-77
2023/04/06 09:10:08;;;;;;;8.82;4.30;;;;;;;30.13;19.44;99944.66;7343378;19;20030;-74
2023/04/06 09:12:34;;;;;;;10.25;4.32;;;;;;;28.71;19.98;99954.44;7341536;19;20014;-77
2023/04/06 09:15:03;;;;;;;6.82;4.70;;;;;;;27.85;21.29;99939.34;7339873;19;20027;-75
2023/04/06 09:17:33;;;;;;;11.88;4.70;;;;;;;28.70;21.04;99949.16;7340104;19;20032;-76
2023/04/06 09:20:00;;;;;;;10.10;4.20;;;;;;;29.18;20.29;99950.34;7339867;19;20033;-73
2023/04/06 09:22:37;;;;;;;8.15;4.40;;;;;;;29.61;20.74;99931.19;7342005;19;20037;-76
2023/04/06 09:25:05;;;;;;;14.05;5.03;;;;;;;29.09;20.17;99940.72;7343309;19;20007;-77
2023/04/06 09:27:35;;;;;;;13.63;4.25;;;;;;;29.45;20.57;99930.94;7340962;19;20011;-81
2023/04/06 09:30:07;;;;;;;8.25;4.70;;;;;;;30.01;19.77;99930.00;7341260;19;20018;-75
2023/04/06 09:32:32;;;;;;;10.73;4.60;;;;;;;29.67;19.78;99923.97;7342713;19;20446;-79
2023/04/06 09:35:07;;;;;;;11.63;5.32;;;;;;;29.90;20.21;99932.41;7342464;19;20461;-76
2023/04/06 09:37:32;;;;;;;18.33;4.78;;;;;;;29.90;19.89;99923.31;7348245;19;20014;-75
2023/04/06 09:40:06;;;;;;;12.93;4.95;;;;;;;30.27;19.83;99929.66;7341496;19;20453;-75
2023/04/06 09:42:30;;;;;;;13.57;4.78;;;;;;;29.64;19.95;99918.94;7339052;19;20022;-76
2023/04/06 09:44:55;;;;;;;11.57;5.38;;;;;;;29.93;20.07;99918.19;7341062;19;20023;-77
2023/04/06 09:47:26;;;;;;;12.13;5.35;;;;;;;30.25;19.42;99929.03;7338123;19;20086;-74
2023/04/06 09:49:57;;;;;;;10.45;4.70;;;;;;;30.17;19.56;99921.09;7339516;19;20094;-75
2023/04/06 09:52:26;;;;;;;9.32;4.57;;;;;;;29.96;19.41;99928.75;7339832;19;20039;-74
2023/04/06 09:54:53;;;;;;;8.20;5.13;;;;;;;29.96;19.60;99916.91;7339342;19;20311;-75
2023/04/06 09:57:56;;;;;;;11.55;5.30;;;;;;;30.29;19.57;99911.00;7341622;19;20059;-75
2023/04/06 10:00:26;;;;;;;11.98;5.15;;;;;;;30.29;19.54;99911.00;7336777;19;20026;-74
2023/04/06 10:03:11;;;;;;;14.32;5.72;;;;;;;31.24;18.87;99914.75;7337059;19;20025;-73
2023/04/06 10:05:46;;;;;;;14.77;5.30;;;;;;;31.42;18.67;99915.72;7335647;19;20335;-74
2023/04/06 10:08:12;;;;;;;18.70;5.65;;;;;;;31.48;18.35;99915.63;7336485;19;20021;-73
2023/04/06 10:10:37;;;;;;;13.80;5.07;;;;;;;30.22;18.49;99913.03;7348820;19;20390;-72
2023/04/06 10:13:05;;;;;;;7.60;4.70;;;;;;;29.98;19.22;99908.44;7363585;19;20048;-76
2023/04/06 10:15:30;;;;;;;12.48;4.90;;;;;;;28.39;19.96;99912.41;7369050;19;20010;-76
2023/04/06 10:18:00;;;;;;;17.55;4.82;;;;;;;25.44;22.07;99917.13;7362378;19;20052;-80
2023/04/06 10:20:39;;;;;;;12.48;4.88;;;;;;;22.53;24.92;99922.34;7341432;19;20037;-79
2023/04/06 10:23:08;;;;;;;14.25;4.35;;;;;;;20.29;27.44;99922.31;7340475;19;20121;-75
2023/04/06 10:25:33;;;;;;;14.35;5.07;;;;;;;19.07;28.85;99913.53;7340613;19;20026;-78
2023/04/06 10:28:06;;;;;;;22.25;4.88;;;;;;;18.48;30.08;99909.59;7344184;19;20011;-77
2023/04/06 10:30:34;;;;;;;7.90;4.72;;;;;;;18.14;30.45;99912.09;7339919;19;20116;-79
2023/04/06 10:32:59;;;;;;;11.38;3.92;;;;;;;17.57;31.23;99918.59;7347117;19;20478;-79
2023/04/06 10:35:38;;;;;;;8.95;4.93;;;;;;;16.86;33.05;99928.09;7348208;19;20454;-76
2023/04/06 10:38:05;;;;;;;17.80;6.07;;;;;;;16.25;33.55;99942.59;7349595;19;20022;-75
2023/04/06 10:40:31;;;;;;;10.80;4.47;;;;;;;15.95;34.05;99929.22;7345744;19;20078;-78
2023/04/06 10:43:12;;;;;;;10.70;4.32;;;;;;;15.79;33.90;99918.13;7344403;19;20038;-69
2023/04/06 10:45:38;;;;;;;11.50;4.13;;;;;;;15.49;34.67;99927.84;7345192;19;20018;-69
2023/04/06 10:48:19;;;;;;;8.48;4.43;;;;;;;15.43;34.47;99936.47;7349376;19;20074;-78
2023/04/06 10:50:51;;;;;;;14.35;4.07;;;;;;;15.68;34.52;99934.34;7348640;19;20505;-76
2023/04/06 10:53:26;;;;;;;13.10;4.35;;;;;;;15.07;35.45;99924.38;7350200;19;20021;-70
2023/04/06 10:55:57;;;;;;;10.73;4.28;;;;;;;14.75;36.27;99926.25;7344251;19;20466;-68
2023/04/06 10:58:34;;;;;;;9.35;4.00;;;;;;;14.61;36.35;99926.56;7344945;19;20414;-70
2023/04/06 11:01:02;;;;;;;7.57;4.15;;;;;;;14.49;36.78;99920.38;7346636;19;20025;-70
2023/04/06 11:03:27;;;;;;;9.55;4.10;;;;;;;14.42;37.01;99921.88;7346403;19;20014;-71
2023/04/06 11:05:53;;;;;;;13.43;4.38;;;;;;;14.45;37.53;99917.09;7344435;19;20089;-72
2023/04/06 11:08:34;;;;;;;10.05;4.25;;;;;;;14.54;36.87;99920.84;7349332;19;20022;-71
2023/04/06 11:11:07;;;;;;;19.80;5.53;;;;;;;14.49;37.20;99912.31;7352421;19;20018;-69
2023/04/06 11:13:43;;;;;;;9.80;3.55;;;;;;;14.44;37.20;99914.56;7347479;19;20015;-73
2023/04/06 11:16:17;;;;;;;5.55;2.67;;;;;;;14.71;36.52;99924.81;7349749;19;20326;-72
2023/04/06 11:18:51;;;;;;;16.58;4.88;;;;;;;14.50;36.87;99927.44;7349048;19;20433;-67
2023/04/06 11:21:17;;;;;;;19.60;4.85;;;;;;;14.21;37.37;99921.78;7345851;19;20015;-68
2023/04/06 11:23:43;;;;;;;10.93;4.10;;;;;;;14.08;37.53;99915.72;7346362;19;20086;-70
2023/04/06 11:26:15;;;;;;;17.05;4.00;;;;;;;14.09;37.76;99907.56;7345161;19;20034;-69
2023/04/06 11:28:42;;;;;;;18.27;3.90;;;;;;;14.12;37.59;99917.16;7344793;19;20493;-69
2023/04/06 11:31:08;;;;;;;9.05;3.70;;;;;;;14.21;37.39;99918.25;7344039;19;20019;-69
2023/04/06 11:33:38;;;;;;;9.07;3.72;;;;;;;14.20;37.67;99924.59;7346805;19;20022;-70
2023/04/06 11:36:04;;;;;;;7.45;4.05;;;;;;;14.06;38.06;99923.88;7346907;19;20023;-69
2023/04/06 11:38:29;;;;;;;8.52;3.47;;;;;;;14.05;37.84;99932.03;7348767;19;20035;-68
2023/04/06 11:40:57;;;;;;;10.80;4.03;;;;;;;14.00;37.97;99908.28;7345984;19;20041;-68
2023/04/06 11:43:30;;;;;;;8.50;3.85;;;;;;;13.96;37.81;99901.50;7342862;19;20014;-70